Ewen, MI (49925)

6:41 AM EDT on August 24, 2016 (GMT -0400)
Ewen MI | | Change Station

Elev 1181 ft 46.52 °N, 89.27 °W | Updated 14 minutes ago

Light Rain
Light Rain
65.7 °F
Feels Like 65.7 °F
N
0.0
Wind Variable Wind from SSW

Today
High -- | Low -- °F
--% Chance of Precip.
Yesterday
High -- | Low -- °F
Precip. -- in
Pressure 29.89 in
Visibility 10.0 miles
Clouds Scattered Clouds 1300 ft
Mostly Cloudy 5000 ft
Overcast 5500 ft
Dew Point 65 °F
Humidity 99%
Rainfall 0.02 in
Snow Depth Not available.
7:07 AM 8:50 PM
Waning Gibbous, 58% visible
METAR KLNL 241035Z AUTO 00000KT 10SM -RA SCT013 BKN050 OVC055 18/17 A2989 RMK AO2 T01760169
Pressure 29.89 in
Visibility 10.0 miles
Clouds Scattered Clouds 1300 ft
Mostly Cloudy 5000 ft
Overcast 5500 ft
Dew Point 65 °F
Humidity 99%
Rainfall 0.02 in
Snow Depth Not available.
7:07 AM 8:50 PM
Waning Gibbous, 58% visible
METAR KLNL 241035Z AUTO 00000KT 10SM -RA SCT013 BKN050 OVC055 18/17 A2989 RMK AO2 T01760169

10-Day Weather Forecast

Almanac

Astronomy

Aug. 24, 2016 Rise Set
Actual Time
Civil Twilight
Nautical Twilight
Astronomical Twilight
Moon
Length of Visible Light
Length of Day
Tomorrow will be .
, % of the Moon is Illuminated

Today's Extremes

State Highs State Lows

Community

WunderPhotos

Upload Photos

1,934,562 photos uploaded!

WunderBlog® & News

Nearby

Air Quality

  Air Quality AQ Index Pollutant
Not available.

Snow Depth

Station Depth Elevation

Earthquake Activity

City Distance Mag. Time & Date
Minimum magnitude displayed is 2.5.

Coastal Water Temperatures

Place Temperature

Stations

Nearby Weather Stations

Station Location Temp. Windchill Dew Point Humidity Wind Precip. Elev Updated Type
                   

Watches & Warnings

There are currently no watches in effect.